Villa Mercedes, Argentina
Current Conditions -  °F | °C
As of 2:00 PM on Monday 20 Oct 2014 (Local Time) from SAOC Reporting Station
Clear Clear  
Wind Chill: 82°   Ceiling: Unl
Heat Index: 82°   Visibility: 6mi
Dew Point: 21°   Wind: 21mph
Humidity: 10%   Direction: 360°N
Pressure: 30.03"   Gusts: NA
Location:  33.67°S, 65.47°W
Report Text: SAOC 201700Z 36018KT CAVOK 28/M06 Q1017
Loading
Personal Weather Stations






























Interactive Weather Map
Tropical Storm Tracking
New forecast layout! Learn more

10-Day Weather Forecast

Advertisements
Track Severe Weather on mobile